createdAt,value
2022-10-14T00:01:21.531Z,98400.63
2022-10-14T00:03:48.871Z,98400.09
2022-10-14T00:06:23.764Z,98396.69
2022-10-14T00:08:50.730Z,98401.25
2022-10-14T00:11:28.106Z,98403.28
2022-10-14T00:13:58.120Z,98397.25
2022-10-14T00:16:31.315Z,98394.88
2022-10-14T00:18:58.845Z,98397.31
2022-10-14T00:21:27.496Z,98400.91
2022-10-14T00:23:55.042Z,98393.13
2022-10-14T00:26:32.105Z,98394.91
2022-10-14T00:29:00.786Z,98394.91
2022-10-14T00:31:32.190Z,98405.53
2022-10-14T00:33:59.302Z,98406.31
2022-10-14T00:36:26.543Z,98407.22
2022-10-14T00:38:54.915Z,98399.69
2022-10-14T00:41:34.111Z,98392.09
2022-10-14T00:44:13.124Z,98393.22
2022-10-14T00:46:46.007Z,98385.44
2022-10-14T00:49:27.737Z,98384.53
2022-10-14T00:52:11.162Z,98386.06
2022-10-14T00:54:50.751Z,98379.03
2022-10-14T00:57:18.585Z,98384.53
2022-10-14T00:59:46.468Z,98376.22
2022-10-14T01:02:14.004Z,98386.75
2022-10-14T01:04:43.621Z,98386.44
2022-10-14T01:07:52.187Z,98392.88
2022-10-14T01:10:46.010Z,98389.19
2022-10-14T01:13:34.828Z,98387.91
2022-10-14T01:16:26.009Z,98387.50
2022-10-14T01:19:37.580Z,98386.91
2022-10-14T01:22:17.658Z,98394.56
2022-10-14T01:25:19.596Z,98382.09
2022-10-14T01:28:43.713Z,98387.66
2022-10-14T01:31:19.425Z,98384.78
2022-10-14T01:33:51.278Z,98386.13
2022-10-14T01:36:29.459Z,98382.66
2022-10-14T01:39:08.260Z,98377.19
2022-10-14T01:41:57.605Z,98371.44
2022-10-14T01:44:27.052Z,98366.53
2022-10-14T01:46:55.869Z,98367.69
2022-10-14T01:49:42.145Z,98361.25
2022-10-14T01:52:16.164Z,98354.75
2022-10-14T01:54:47.172Z,98362.41
2022-10-14T01:57:22.114Z,98364.09
2022-10-14T01:59:52.386Z,98372.75
2022-10-14T02:02:20.166Z,98362.97
2022-10-14T02:04:47.339Z,98369.56
2022-10-14T02:07:29.382Z,98364.50
2022-10-14T02:10:20.785Z,98366.88
2022-10-14T02:13:29.991Z,98364.19
2022-10-14T02:16:24.044Z,98369.34
2022-10-14T02:19:01.995Z,98360.53
2022-10-14T02:21:46.934Z,98358.19
2022-10-14T02:24:36.020Z,98355.38
2022-10-14T02:27:09.982Z,98347.84
2022-10-14T02:29:41.735Z,98359.00
2022-10-14T02:32:10.073Z,98361.50
2022-10-14T02:34:38.714Z,98376.44
2022-10-14T02:37:09.902Z,98369.22
2022-10-14T02:39:43.621Z,98374.59
2022-10-14T02:42:10.647Z,98366.97
2022-10-14T02:44:37.588Z,98358.72
2022-10-14T02:47:05.010Z,98360.28
2022-10-14T02:49:32.058Z,98359.06
2022-10-14T02:51:59.769Z,98368.38
2022-10-14T02:54:26.693Z,98377.91
2022-10-14T02:56:53.722Z,98358.06
2022-10-14T02:59:24.148Z,98366.34
2022-10-14T03:01:51.198Z,98362.59
2022-10-14T03:04:19.896Z,98361.56
2022-10-14T03:06:46.870Z,98364.22
2022-10-14T03:09:14.441Z,98362.81
2022-10-14T03:11:41.912Z,98368.50
2022-10-14T03:14:14.547Z,98360.38
2022-10-14T03:16:42.582Z,98360.59
2022-10-14T03:19:12.374Z,98362.13
2022-10-14T03:21:44.386Z,98357.19
2022-10-14T03:24:17.673Z,98350.94
2022-10-14T03:26:45.618Z,98345.75
2022-10-14T03:29:12.944Z,98332.66
2022-10-14T03:32:02.884Z,98324.38
2022-10-14T03:34:35.087Z,98325.31
2022-10-14T03:37:06.463Z,98316.91
2022-10-14T03:39:37.787Z,98312.72
2022-10-14T03:42:07.027Z,98314.94
2022-10-14T03:44:41.314Z,98312.66
2022-10-14T03:47:28.883Z,98318.75
2022-10-14T03:49:55.979Z,98304.94
2022-10-14T03:52:32.204Z,98305.31
2022-10-14T03:55:16.100Z,98293.00
2022-10-14T03:57:45.275Z,98289.75
2022-10-14T04:00:13.881Z,98288.59
2022-10-14T04:02:41.962Z,98281.81
2022-10-14T04:05:32.550Z,98281.00
2022-10-14T04:08:01.761Z,98278.66
2022-10-14T04:10:29.126Z,98271.78
2022-10-14T04:12:56.693Z,98253.47
2022-10-14T04:15:30.709Z,98261.69
2022-10-14T04:18:26.917Z,98256.63
2022-10-14T04:21:01.810Z,98261.25
2022-10-14T04:23:29.471Z,98255.22
2022-10-14T04:26:12.241Z,98240.88
2022-10-14T04:28:39.979Z,98247.09
2022-10-14T04:31:14.663Z,98254.72
2022-10-14T04:33:52.003Z,98255.44
2022-10-14T04:36:25.475Z,98252.00
2022-10-14T04:38:52.563Z,98239.78
2022-10-14T04:41:19.547Z,98247.53
2022-10-14T04:43:48.817Z,98239.59
2022-10-14T04:46:38.616Z,98252.41
2022-10-14T04:49:05.719Z,98247.56
2022-10-14T04:51:38.657Z,98234.88
2022-10-14T04:54:30.876Z,98239.19
2022-10-14T04:57:00.216Z,98232.91
2022-10-14T04:59:29.429Z,98230.63
2022-10-14T05:01:56.473Z,98224.28
2022-10-14T05:04:31.091Z,98227.22
2022-10-14T05:06:59.199Z,98226.75
2022-10-14T05:09:26.302Z,98225.19
2022-10-14T05:11:53.311Z,98215.03
2022-10-14T05:14:23.604Z,98219.56
2022-10-14T05:17:01.627Z,98207.22
2022-10-14T05:19:31.548Z,98205.88
2022-10-14T05:21:58.463Z,98198.34
2022-10-14T05:24:32.073Z,98202.81
2022-10-14T05:26:59.095Z,98205.81
2022-10-14T05:29:28.266Z,98196.13
2022-10-14T05:31:56.655Z,98199.72
2022-10-14T05:34:37.914Z,98201.66
2022-10-14T05:37:08.813Z,98193.22
2022-10-14T05:39:44.174Z,98189.97
2022-10-14T05:42:11.934Z,98188.66
2022-10-14T05:44:39.962Z,98186.38
2022-10-14T05:47:07.424Z,98185.56
2022-10-14T05:49:35.225Z,98183.50
2022-10-14T05:52:04.835Z,98181.56
2022-10-14T05:54:33.128Z,98175.97
2022-10-14T05:57:00.214Z,98183.59
2022-10-14T05:59:29.656Z,98185.88
2022-10-14T06:01:57.873Z,98190.84
2022-10-14T06:04:25.928Z,98183.13
2022-10-14T06:06:53.069Z,98191.84
2022-10-14T06:09:20.533Z,98198.59
2022-10-14T06:11:47.622Z,98183.13
2022-10-14T06:14:15.341Z,98178.19
2022-10-14T06:16:42.381Z,98192.84
2022-10-14T06:19:09.470Z,98182.06
2022-10-14T06:21:38.008Z,98187.50
2022-10-14T06:24:05.211Z,98196.13
2022-10-14T06:26:32.615Z,98189.16
2022-10-14T06:28:59.615Z,98187.53
2022-10-14T06:31:31.281Z,98186.81
2022-10-14T06:34:00.819Z,98191.84
2022-10-14T06:36:28.447Z,98191.09
2022-10-14T06:38:55.427Z,98194.16
2022-10-14T06:41:22.488Z,98190.28
2022-10-14T06:43:49.507Z,98193.69
2022-10-14T06:46:16.461Z,98187.13
2022-10-14T06:48:48.047Z,98187.75
2022-10-14T06:51:17.116Z,98198.84
2022-10-14T06:53:44.161Z,98195.41
2022-10-14T06:56:11.971Z,98185.75
2022-10-14T06:58:38.949Z,98195.97
2022-10-14T07:01:08.056Z,98194.69
2022-10-14T07:03:36.811Z,98195.06
2022-10-14T07:06:06.395Z,98198.34
2022-10-14T07:08:33.851Z,98194.84
2022-10-14T07:11:00.913Z,98201.38
2022-10-14T07:13:28.071Z,98192.72
2022-10-14T07:15:55.065Z,98201.66
2022-10-14T07:18:22.277Z,98197.69
2022-10-14T07:20:49.298Z,98196.03
2022-10-14T07:23:16.765Z,98189.06
2022-10-14T07:25:44.122Z,98194.50
2022-10-14T07:28:11.127Z,98203.59
2022-10-14T07:30:38.293Z,98194.63
2022-10-14T07:33:05.360Z,98196.28
2022-10-14T07:35:32.382Z,98193.69
2022-10-14T07:38:00.172Z,98189.16
2022-10-14T07:40:27.755Z,98188.16
2022-10-14T07:42:54.913Z,98193.22
2022-10-14T07:45:22.188Z,98194.00
2022-10-14T07:47:50.982Z,98195.34
2022-10-14T07:50:18.243Z,98203.13
2022-10-14T07:52:45.617Z,98197.91
2022-10-14T07:55:12.749Z,98205.91
2022-10-14T07:57:39.764Z,98220.34
2022-10-14T08:00:08.206Z,98207.25
2022-10-14T08:02:41.193Z,98202.22
2022-10-14T08:05:39.025Z,98200.44
2022-10-14T08:07:55.324Z,98196.78
2022-10-14T08:10:22.464Z,98202.06
2022-10-14T08:12:50.193Z,98197.03
2022-10-14T08:15:17.221Z,98199.88
2022-10-14T08:17:44.200Z,98197.56
2022-10-14T08:20:12.709Z,98200.09
2022-10-14T08:22:39.979Z,98189.81
2022-10-14T08:25:07.528Z,98191.75
2022-10-14T08:27:34.638Z,98195.28
2022-10-14T08:30:04.030Z,98196.00
2022-10-14T08:32:33.050Z,98186.59
2022-10-14T08:35:00.098Z,98192.44
2022-10-14T08:37:27.139Z,98189.59
2022-10-14T08:39:54.112Z,98184.97
2022-10-14T08:42:53.659Z,98178.00
2022-10-14T08:45:40.075Z,98183.34
2022-10-14T08:48:18.632Z,98177.50
2022-10-14T08:51:03.315Z,98165.22
2022-10-14T08:53:40.939Z,98176.78
2022-10-14T08:56:09.672Z,98166.25
2022-10-14T08:58:50.304Z,98177.91
2022-10-14T09:01:33.661Z,98169.44
2022-10-14T09:04:06.869Z,98165.00
2022-10-14T09:06:36.775Z,98163.28
2022-10-14T09:09:14.695Z,98163.69
2022-10-14T09:11:46.231Z,98157.69
2022-10-14T09:14:20.034Z,98152.06
2022-10-14T09:16:54.207Z,98162.84
2022-10-14T09:19:32.092Z,98165.13
2022-10-14T09:22:01.271Z,98167.41
2022-10-14T09:24:32.259Z,98163.09
2022-10-14T09:27:06.741Z,98153.53
2022-10-14T09:29:45.387Z,98151.00
2022-10-14T09:32:31.900Z,98152.75
2022-10-14T09:34:59.924Z,98152.97
2022-10-14T09:37:31.400Z,98154.03
2022-10-14T09:40:03.528Z,98147.34
2022-10-14T09:42:52.984Z,98158.00
2022-10-14T09:45:22.851Z,98150.84
2022-10-14T09:47:58.841Z,98150.97
2022-10-14T09:50:31.454Z,98150.25
2022-10-14T09:53:24.643Z,98149.44
2022-10-14T10:07:23.198Z,98130.06
2022-10-14T10:20:21.941Z,98110.13
2022-10-14T10:23:25.727Z,98104.03
2022-10-14T10:25:53.238Z,98102.47
2022-10-14T10:28:33.004Z,98102.50
2022-10-14T10:31:07.676Z,98094.91
2022-10-14T10:34:40.588Z,98089.13
2022-10-14T10:37:27.216Z,98092.34
2022-10-14T10:40:16.752Z,98078.19
2022-10-14T10:43:25.689Z,98082.53
2022-10-14T10:46:33.157Z,98070.88
2022-10-14T10:49:34.684Z,98064.75
2022-10-14T10:52:16.158Z,98069.19
2022-10-14T10:55:13.873Z,98062.88
2022-10-14T10:58:03.742Z,98051.41
2022-10-14T11:00:47.339Z,98046.94
2022-10-14T11:03:31.041Z,98058.59
2022-10-14T11:06:15.745Z,98061.66
2022-10-14T11:09:27.566Z,98063.50
2022-10-14T11:13:00.244Z,98053.72
2022-10-14T11:15:54.281Z,98055.03
2022-10-14T11:18:37.338Z,98045.41
2022-10-14T11:21:55.350Z,98045.09
2022-10-14T11:25:25.148Z,98033.00
2022-10-14T11:38:12.873Z,98009.13
2022-10-14T11:41:21.930Z,98021.41
2022-10-14T11:47:34.978Z,98025.69
2022-10-14T11:51:22.082Z,98031.09
2022-10-14T11:58:45.295Z,98027.81
2022-10-14T12:02:14.795Z,98035.91
2022-10-14T12:05:31.453Z,98042.88
2022-10-14T12:09:13.861Z,98027.41
2022-10-14T12:11:53.344Z,98022.94
2022-10-14T12:14:34.079Z,98025.66
2022-10-14T12:17:08.158Z,98029.38
2022-10-14T12:19:37.323Z,98024.53
2022-10-14T12:22:20.978Z,98008.50
2022-10-14T12:24:55.803Z,98008.06
2022-10-14T12:27:26.169Z,97986.53
2022-10-14T12:29:58.553Z,97994.00
2022-10-14T12:32:32.055Z,97984.09
2022-10-14T12:35:01.631Z,97983.28
2022-10-14T12:37:38.140Z,97970.84
2022-10-14T12:40:06.768Z,97969.78
2022-10-14T12:42:53.849Z,97978.91
2022-10-14T12:45:23.869Z,97961.19
2022-10-14T12:48:24.528Z,97953.34
2022-10-14T12:51:16.432Z,97954.34
2022-10-14T12:54:04.970Z,97962.56
2022-10-14T12:57:05.602Z,97960.84
2022-10-14T12:59:40.100Z,97958.72
2022-10-14T13:02:35.625Z,97946.34
2022-10-14T13:05:10.442Z,97942.84
2022-10-14T13:07:50.784Z,97943.34
2022-10-14T13:10:44.930Z,97948.50
2022-10-14T13:13:38.569Z,97946.06
2022-10-14T13:16:09.919Z,97930.94
2022-10-14T13:18:48.419Z,97937.91
2022-10-14T13:21:41.672Z,97938.53
2022-10-14T13:24:23.823Z,97940.09
2022-10-14T13:26:54.250Z,97941.41
2022-10-14T13:29:21.611Z,97935.69
2022-10-14T13:32:22.681Z,97938.22
2022-10-14T13:35:17.932Z,97932.03
2022-10-14T13:38:03.016Z,97935.00
2022-10-14T13:40:45.625Z,97942.00
2022-10-14T13:43:26.824Z,97927.19
2022-10-14T13:46:24.588Z,97944.13
2022-10-14T13:48:56.980Z,97948.75
2022-10-14T13:51:53.175Z,97941.41
2022-10-14T14:12:36.949Z,97914.44
2022-10-14T14:15:05.109Z,97906.66
2022-10-14T14:17:33.390Z,97907.22
2022-10-14T14:20:00.422Z,97903.72
2022-10-14T14:22:30.246Z,97894.28
2022-10-14T14:25:36.144Z,97878.56
2022-10-14T14:28:15.403Z,97876.16
2022-10-14T14:30:55.107Z,97888.09
2022-10-14T14:33:44.235Z,97881.63
2022-10-14T14:36:27.853Z,97893.66
2022-10-14T14:39:05.383Z,97880.41
2022-10-14T14:41:33.309Z,97883.25
2022-10-14T14:44:24.673Z,97886.47
2022-10-14T14:46:55.564Z,97877.03
2022-10-14T14:49:35.815Z,97891.84
2022-10-14T14:52:06.703Z,97888.13
2022-10-14T14:54:33.873Z,97890.53
2022-10-14T14:57:01.073Z,97902.50
2022-10-14T14:59:30.057Z,97895.81
2022-10-14T15:04:35.689Z,97914.88
2022-10-14T15:07:13.254Z,97902.59
2022-10-14T15:09:47.189Z,97907.75
2022-10-14T15:12:19.989Z,97911.38
2022-10-14T15:14:55.569Z,97894.13
2022-10-14T15:17:36.233Z,97903.81
2022-10-14T15:20:34.012Z,97905.47
2022-10-14T15:23:42.787Z,97885.06
2022-10-14T15:26:24.030Z,97878.63
2022-10-14T15:32:02.299Z,97886.19
2022-10-14T15:34:29.435Z,97894.13
2022-10-14T15:36:56.797Z,97891.19
2022-10-14T15:39:23.930Z,97887.94
2022-10-14T15:41:51.044Z,97874.28
2022-10-14T15:44:18.109Z,97882.72
2022-10-14T15:47:05.029Z,97872.91
2022-10-14T15:49:42.043Z,97889.63
2022-10-14T15:52:15.936Z,97885.06
2022-10-14T15:54:43.965Z,97869.50
2022-10-14T15:57:15.562Z,97886.91
2022-10-14T15:59:47.017Z,97890.66
2022-10-14T16:02:31.033Z,97887.56
2022-10-14T16:05:18.821Z,97878.91
2022-10-14T16:07:45.660Z,97869.22
2022-10-14T16:10:17.052Z,97884.69
2022-10-14T16:12:44.164Z,97870.03
2022-10-14T16:15:31.052Z,97867.88
2022-10-14T16:17:58.440Z,97879.66
2022-10-14T16:20:26.934Z,97882.31
2022-10-14T16:22:56.980Z,97872.69
2022-10-14T16:25:38.942Z,97877.47
2022-10-14T16:28:10.059Z,97863.53
2022-10-14T16:30:41.271Z,97874.91
2022-10-14T16:33:09.313Z,97872.09
2022-10-14T16:35:36.382Z,97882.41
2022-10-14T16:38:03.462Z,97876.06
2022-10-14T16:40:35.733Z,97886.50
2022-10-14T16:43:05.989Z,97890.63
2022-10-14T16:45:33.391Z,97893.53
2022-10-14T16:48:00.803Z,97881.38
2022-10-14T16:50:27.853Z,97875.03
2022-10-14T16:53:13.750Z,97869.41
2022-10-14T16:55:40.755Z,97861.66
2022-10-14T16:58:08.313Z,97870.03
2022-10-14T17:00:35.429Z,97877.03
2022-10-14T17:03:08.054Z,97883.06
2022-10-14T17:05:35.479Z,97873.53
2022-10-14T17:08:02.649Z,97892.78
2022-10-14T17:10:29.767Z,97893.88
2022-10-14T17:12:57.567Z,97903.50
2022-10-14T17:15:24.977Z,97902.75
2022-10-14T17:17:53.620Z,97884.84
2022-10-14T17:20:23.036Z,97894.28
2022-10-14T17:22:50.099Z,97903.00
2022-10-14T17:25:17.850Z,97903.06
2022-10-14T17:27:45.019Z,97889.69
2022-10-14T17:30:12.781Z,97891.06
2022-10-14T17:32:40.592Z,97892.84
2022-10-14T17:35:11.363Z,97877.56
2022-10-14T17:37:42.550Z,97893.88
2022-10-14T17:40:10.225Z,97888.06
2022-10-14T17:42:39.397Z,97877.84
2022-10-14T17:45:07.929Z,97881.47
2022-10-14T17:47:34.971Z,97868.13
2022-10-14T17:50:01.993Z,97861.41
2022-10-14T17:52:29.150Z,97873.94
2022-10-14T17:54:58.957Z,97863.47
2022-10-14T17:57:28.389Z,97886.34
2022-10-14T17:59:55.484Z,97888.38
2022-10-14T18:02:22.447Z,97890.81
2022-10-14T18:04:50.587Z,97882.63
2022-10-14T18:07:18.867Z,97878.28
2022-10-14T18:09:46.346Z,97875.44
2022-10-14T18:12:13.608Z,97870.97
2022-10-14T18:14:41.574Z,97863.75
2022-10-14T18:17:12.460Z,97856.81
2022-10-14T18:19:46.102Z,97858.34
2022-10-14T18:22:17.162Z,97856.25
2022-10-14T18:24:44.268Z,97857.78
2022-10-14T18:27:11.595Z,97853.13
2022-10-14T18:29:39.318Z,97844.06
2022-10-14T18:32:06.301Z,97864.38
2022-10-14T18:34:33.738Z,97848.66
2022-10-14T18:37:00.926Z,97855.81
2022-10-14T18:39:28.025Z,97858.31
2022-10-14T18:41:57.519Z,97859.03
2022-10-14T18:44:24.663Z,97854.72
2022-10-14T18:46:51.670Z,97854.00
2022-10-14T18:49:21.202Z,97845.66
2022-10-14T18:51:48.890Z,97841.63
2022-10-14T18:54:21.425Z,97836.34
2022-10-14T18:56:48.413Z,97841.06
2022-10-14T18:59:21.456Z,97836.91
2022-10-14T19:01:53.635Z,97853.19
2022-10-14T19:04:25.670Z,97848.88
2022-10-14T19:06:53.130Z,97843.50
2022-10-14T19:09:23.972Z,97854.84
2022-10-14T19:11:52.614Z,97827.06
2022-10-14T19:14:20.707Z,97831.66
2022-10-14T19:16:49.533Z,97843.84
2022-10-14T19:19:19.578Z,97828.75
2022-10-14T19:21:49.854Z,97815.66
2022-10-14T19:24:17.557Z,97813.66
2022-10-14T19:26:46.667Z,97808.25
2022-10-14T19:29:15.664Z,97807.88
2022-10-14T19:31:44.068Z,97804.69
2022-10-14T19:34:15.241Z,97794.47
2022-10-14T19:36:43.371Z,97792.44
2022-10-14T19:39:14.780Z,97779.72
2022-10-14T19:41:51.003Z,97788.09
2022-10-14T19:44:18.182Z,97780.06
2022-10-14T19:46:45.800Z,97769.75
2022-10-14T19:49:14.585Z,97771.03
2022-10-14T19:51:41.705Z,97773.53
2022-10-14T19:54:11.976Z,97773.09
2022-10-14T19:56:39.273Z,97763.22
2022-10-14T19:59:06.272Z,97759.97
2022-10-14T20:01:33.412Z,97754.44
2022-10-14T20:04:02.445Z,97758.19
2022-10-14T20:06:33.852Z,97750.34
2022-10-14T20:09:01.408Z,97757.72
2022-10-14T20:11:28.993Z,97759.13
2022-10-14T20:13:56.458Z,97750.66
2022-10-14T20:16:23.670Z,97742.78
2022-10-14T20:18:50.705Z,97754.59
2022-10-14T20:21:17.854Z,97740.03
2022-10-14T20:23:45.274Z,97748.19
2022-10-14T20:26:15.509Z,97742.78
2022-10-14T20:28:42.781Z,97734.75
2022-10-14T20:31:13.660Z,97723.81
2022-10-14T20:33:40.935Z,97731.34
2022-10-14T20:36:15.500Z,97793.34
2022-10-14T20:38:43.655Z,97722.41
2022-10-14T20:41:23.305Z,97723.59
2022-10-14T20:43:51.431Z,97710.88
2022-10-14T20:46:19.315Z,97714.09
2022-10-14T20:48:46.409Z,97710.53
2022-10-14T20:51:17.578Z,97705.53
2022-10-14T20:53:45.054Z,97716.34
2022-10-14T20:56:13.975Z,97705.97
2022-10-14T20:59:00.173Z,97704.44
2022-10-14T21:01:29.553Z,97711.25
2022-10-14T21:03:59.639Z,97713.97
2022-10-14T21:06:27.019Z,97697.84
2022-10-14T21:08:54.622Z,97689.00
2022-10-14T21:11:24.080Z,97680.13
2022-10-14T21:13:55.021Z,97683.94
2022-10-14T21:16:31.083Z,97677.19
2022-10-14T21:19:05.215Z,97678.88
2022-10-14T21:21:37.716Z,97684.91
2022-10-14T21:24:05.518Z,97672.72
2022-10-14T21:26:32.564Z,97674.69
2022-10-14T21:29:02.377Z,97669.41
2022-10-14T21:31:30.420Z,97660.63
2022-10-14T21:34:05.010Z,97659.31
2022-10-14T21:36:34.545Z,97672.59
2022-10-14T21:39:12.589Z,97658.28
2022-10-14T21:41:40.668Z,97676.63
2022-10-14T21:44:09.257Z,97661.63
2022-10-14T21:46:50.046Z,97654.47
2022-10-14T21:49:19.474Z,97651.00
2022-10-14T21:52:02.916Z,97656.63
2022-10-14T21:54:44.302Z,97639.03
2022-10-14T21:57:35.538Z,97638.81
2022-10-14T22:00:13.983Z,97643.94
2022-10-14T22:02:40.981Z,97629.72
2022-10-14T22:05:08.537Z,97621.72
2022-10-14T22:07:35.800Z,97623.69
2022-10-14T22:10:02.766Z,97631.97
2022-10-14T22:12:30.368Z,97611.50
2022-10-14T22:14:57.371Z,97618.94
2022-10-14T22:17:24.612Z,97607.78
2022-10-14T22:19:51.959Z,97609.41
2022-10-14T22:22:18.942Z,97606.00
2022-10-14T22:24:46.009Z,97602.25
2022-10-14T22:27:13.124Z,97601.91
2022-10-14T22:29:40.192Z,97584.09
2022-10-14T22:32:07.194Z,97581.53
2022-10-14T22:34:34.269Z,97582.72
2022-10-14T22:37:01.801Z,97578.63
2022-10-14T22:39:28.777Z,97585.34
2022-10-14T22:41:55.839Z,97582.63
2022-10-14T22:44:22.914Z,97568.34
2022-10-14T22:46:49.922Z,97577.81
2022-10-14T22:49:16.914Z,97580.59
2022-10-14T22:51:43.879Z,97577.19
2022-10-14T22:54:11.352Z,97578.81
2022-10-14T22:56:38.962Z,97582.59
2022-10-14T22:59:09.622Z,97568.75
2022-10-14T23:01:37.940Z,97569.34
2022-10-14T23:04:05.535Z,97561.00
2022-10-14T23:06:32.652Z,97566.28
2022-10-14T23:09:00.535Z,97548.88
2022-10-14T23:11:29.881Z,97554.28
2022-10-14T23:13:59.108Z,97555.03
2022-10-14T23:16:29.037Z,97565.97
2022-10-14T23:18:58.277Z,97559.34
2022-10-14T23:21:29.411Z,97541.28
2022-10-14T23:24:00.553Z,97550.41
2022-10-14T23:26:31.756Z,97540.16
2022-10-14T23:29:00.596Z,97562.75
2022-10-14T23:31:31.890Z,97544.22
2022-10-14T23:34:01.622Z,97536.38
2022-10-14T23:36:29.103Z,97536.63
2022-10-14T23:38:58.219Z,97539.84
2022-10-14T23:41:25.648Z,97543.47
2022-10-14T23:43:53.169Z,97524.03
2022-10-14T23:46:20.908Z,97540.72
2022-10-14T23:48:55.798Z,97540.47
2022-10-14T23:51:34.285Z,97536.28
2022-10-14T23:54:01.357Z,97544.25
2022-10-14T23:56:28.404Z,97533.31
2022-10-14T23:58:55.435Z,97543.47
